Terminal Aerodrome Forecast
Issued by NWS Tuscon, AZ

Home | Current Version | Previous Version | Text Only | Print | Product List | Glossary On
Versions: 1 2 3 4 5 6 7 8 9 10 11 12 13 14
000
FTUS45 KTWC 031735
TAFTUS
TAF
KTUS 031735Z 0318/0418 19010KT P6SM SCT100
     FM032000 23012G19KT P6SM SCT100
     FM040200 22007KT P6SM SCT090
     FM040700 15005KT P6SM SCT040 BKN070=

USA.gov is the U.S. government's official web portal to all federal, state and local government web resources and services.